createdAt,value
2019-03-19T00:02:18.978Z,2.50
2019-03-19T00:04:49.101Z,2.50
2019-03-19T00:07:18.875Z,2.50
2019-03-19T00:09:48.666Z,2.50
2019-03-19T00:12:18.363Z,2.50
2019-03-19T00:14:48.229Z,2.50
2019-03-19T00:17:17.915Z,2.40
2019-03-19T00:19:47.747Z,2.40
2019-03-19T00:22:17.699Z,2.50
2019-03-19T00:24:47.402Z,2.40
2019-03-19T00:27:17.708Z,2.30
2019-03-19T00:29:47.462Z,2.40
2019-03-19T00:32:17.690Z,2.40
2019-03-19T00:34:47.383Z,2.30
2019-03-19T00:37:17.148Z,2.30
2019-03-19T00:39:47.285Z,2.30
2019-03-19T00:42:17.291Z,2.30
2019-03-19T00:44:47.224Z,2.30
2019-03-19T00:47:16.940Z,2.30
2019-03-19T00:49:46.703Z,2.40
2019-03-19T00:52:16.427Z,2.50
2019-03-19T00:54:46.104Z,2.40
2019-03-19T00:57:15.838Z,2.40
2019-03-19T00:59:45.675Z,2.40
2019-03-19T01:02:15.712Z,2.30
2019-03-19T01:04:45.754Z,2.30
2019-03-19T01:07:15.679Z,2.30
2019-03-19T01:09:46.055Z,2.30
2019-03-19T01:12:15.763Z,2.30
2019-03-19T01:14:45.882Z,2.30
2019-03-19T01:17:15.778Z,2.30
2019-03-19T01:19:46.057Z,2.40
2019-03-19T01:22:16.083Z,2.40
2019-03-19T01:24:45.790Z,2.30
2019-03-19T01:27:15.745Z,2.30
2019-03-19T01:29:45.688Z,2.20
2019-03-19T01:32:15.390Z,2.30
2019-03-19T01:34:45.190Z,2.20
2019-03-19T01:37:14.882Z,2.20
2019-03-19T01:39:44.566Z,2.20
2019-03-19T01:42:14.323Z,2.40
2019-03-19T01:44:44.353Z,2.30
2019-03-19T01:47:14.954Z,2.30
2019-03-19T01:49:44.910Z,2.40
2019-03-19T01:52:14.769Z,2.40
2019-03-19T01:54:45.027Z,2.40
2019-03-19T01:57:14.763Z,2.30
2019-03-19T01:59:44.534Z,2.30
2019-03-19T02:02:14.834Z,2.30
2019-03-19T02:04:44.810Z,2.30
2019-03-19T02:07:14.562Z,2.40
2019-03-19T02:09:44.538Z,2.40
2019-03-19T02:12:14.249Z,2.30
2019-03-19T02:14:44.011Z,2.40
2019-03-19T02:17:14.523Z,2.30
2019-03-19T02:19:44.268Z,2.40
2019-03-19T02:22:14.142Z,2.50
2019-03-19T02:24:44.130Z,2.50
2019-03-19T02:27:14.076Z,2.50
2019-03-19T02:29:44.351Z,2.50
2019-03-19T02:32:14.132Z,2.40
2019-03-19T02:34:44.341Z,2.50
2019-03-19T02:37:14.443Z,2.50
2019-03-19T02:39:44.111Z,2.50
2019-03-19T02:42:13.813Z,2.50
2019-03-19T02:44:43.747Z,2.60
2019-03-19T02:47:13.514Z,2.50
2019-03-19T02:49:43.452Z,2.50
2019-03-19T02:52:13.320Z,2.60
2019-03-19T02:54:43.548Z,2.70
2019-03-19T02:57:13.564Z,2.70
2019-03-19T02:59:43.495Z,2.70
2019-03-19T03:02:13.294Z,2.70
2019-03-19T03:04:43.257Z,2.70
2019-03-19T03:07:13.477Z,2.70
2019-03-19T03:09:43.824Z,2.80
2019-03-19T03:12:13.606Z,2.90
2019-03-19T03:14:46.118Z,2.90
2019-03-19T03:17:14.882Z,2.80
2019-03-19T03:19:44.567Z,2.80
2019-03-19T03:22:14.339Z,3.00
2019-03-19T03:24:44.340Z,2.90
2019-03-19T03:27:14.026Z,2.90
2019-03-19T03:29:43.828Z,2.90
2019-03-19T03:32:13.568Z,2.80
2019-03-19T03:34:43.257Z,2.90
2019-03-19T03:37:13.039Z,2.90
2019-03-19T03:39:43.011Z,2.90
2019-03-19T03:42:12.907Z,2.70
2019-03-19T03:44:43.249Z,2.80
2019-03-19T03:47:13.191Z,2.70
2019-03-19T03:49:43.454Z,2.70
2019-03-19T03:52:13.122Z,2.60
2019-03-19T03:54:43.423Z,2.60
2019-03-19T03:57:14.035Z,2.60
2019-03-19T03:59:44.008Z,2.50
2019-03-19T04:02:13.863Z,2.40
2019-03-19T04:04:43.723Z,2.40
2019-03-19T04:07:13.466Z,2.50
2019-03-19T04:09:43.188Z,2.30
2019-03-19T04:12:13.392Z,2.40
2019-03-19T04:14:46.497Z,2.50
2019-03-19T04:17:15.124Z,2.50
2019-03-19T04:19:44.833Z,2.60
2019-03-19T04:22:16.020Z,2.50
2019-03-19T04:24:54.019Z,2.30
2019-03-19T04:27:23.842Z,2.20
2019-03-19T04:29:53.604Z,2.30
2019-03-19T04:32:23.427Z,2.30
2019-03-19T04:34:53.170Z,2.40
2019-03-19T04:37:22.931Z,2.40
2019-03-19T04:39:52.649Z,2.30
2019-03-19T04:42:22.557Z,2.30
2019-03-19T04:44:52.763Z,2.40
2019-03-19T04:47:22.733Z,2.40
2019-03-19T04:49:52.957Z,2.40
2019-03-19T04:52:22.918Z,2.30
2019-03-19T04:54:52.622Z,2.20
2019-03-19T04:57:26.937Z,2.20
2019-03-19T04:59:54.295Z,2.20
2019-03-19T05:02:24.071Z,2.20
2019-03-19T05:04:54.120Z,2.50
2019-03-19T05:07:24.103Z,2.40
2019-03-19T05:09:54.019Z,2.40
2019-03-19T05:12:24.048Z,2.60
2019-03-19T05:14:54.031Z,2.70
2019-03-19T05:17:23.977Z,2.70
2019-03-19T05:19:53.767Z,2.70
2019-03-19T05:22:23.563Z,2.60
2019-03-19T05:24:53.846Z,2.60
2019-03-19T05:27:23.678Z,2.60
2019-03-19T05:29:53.462Z,2.60
2019-03-19T05:32:23.495Z,2.60
2019-03-19T05:34:53.291Z,2.70
2019-03-19T05:37:24.071Z,2.70
2019-03-19T05:39:53.840Z,2.70
2019-03-19T05:42:23.534Z,2.80
2019-03-19T05:45:00.052Z,2.80
2019-03-19T05:47:37.021Z,2.80
2019-03-19T05:50:02.677Z,2.90
2019-03-19T05:52:32.820Z,2.90
2019-03-19T05:55:02.857Z,2.90
2019-03-19T05:57:32.802Z,2.90
2019-03-19T06:00:02.956Z,2.90
2019-03-19T06:02:32.971Z,2.90
2019-03-19T06:05:03.201Z,2.80
2019-03-19T06:07:33.802Z,2.90
2019-03-19T06:10:04.242Z,2.90
2019-03-19T06:12:34.011Z,2.90
2019-03-19T06:15:04.630Z,3.00
2019-03-19T06:17:34.326Z,2.90
2019-03-19T06:20:04.768Z,3.10
2019-03-19T06:22:34.471Z,3.10
2019-03-19T06:25:05.255Z,3.00
2019-03-19T06:27:35.374Z,3.00
2019-03-19T06:30:06.936Z,2.90
2019-03-19T06:32:36.734Z,2.80
2019-03-19T06:35:08.098Z,2.80
2019-03-19T06:37:38.434Z,2.80
2019-03-19T06:40:10.056Z,2.90
2019-03-19T06:42:39.747Z,2.90
2019-03-19T06:45:11.678Z,3.00
2019-03-19T06:47:41.813Z,3.10
2019-03-19T06:50:12.219Z,3.10
2019-03-19T06:52:42.068Z,3.20
2019-03-19T06:55:11.971Z,3.20
2019-03-19T06:57:42.082Z,3.10
2019-03-19T07:00:17.151Z,3.20
2019-03-19T07:02:47.119Z,3.10
2019-03-19T07:05:17.665Z,3.10
2019-03-19T07:07:47.559Z,3.10
2019-03-19T07:10:17.347Z,3.20
2019-03-19T07:12:47.443Z,3.30
2019-03-19T07:15:17.331Z,3.30
2019-03-19T07:17:47.515Z,3.20
2019-03-19T07:20:17.555Z,3.30
2019-03-19T07:22:47.286Z,3.40
2019-03-19T07:25:17.117Z,3.40
2019-03-19T07:27:46.832Z,3.70
2019-03-19T07:30:17.218Z,3.90
2019-03-19T07:32:47.677Z,3.90
2019-03-19T07:35:17.603Z,4.10
2019-03-19T07:37:47.644Z,4.20
2019-03-19T07:40:17.596Z,4.30
2019-03-19T07:42:47.432Z,4.30
2019-03-19T07:45:17.560Z,4.40
2019-03-19T07:47:47.358Z,4.40
2019-03-19T07:50:17.194Z,4.50
2019-03-19T07:52:47.455Z,4.60
2019-03-19T07:55:17.560Z,4.60
2019-03-19T07:57:47.514Z,4.70
2019-03-19T08:00:17.554Z,4.60
2019-03-19T08:02:47.278Z,4.60
2019-03-19T08:05:17.134Z,4.70
2019-03-19T08:07:46.917Z,4.70
2019-03-19T08:10:16.766Z,4.80
2019-03-19T08:12:46.614Z,4.80
2019-03-19T08:15:16.448Z,5.00
2019-03-19T08:17:46.548Z,5.00
2019-03-19T08:20:16.394Z,4.90
2019-03-19T08:22:46.340Z,4.70
2019-03-19T08:25:16.348Z,4.50
2019-03-19T08:27:46.364Z,4.40
2019-03-19T08:30:17.068Z,4.40
2019-03-19T08:32:46.933Z,4.50
2019-03-19T08:35:17.027Z,4.70
2019-03-19T08:37:46.975Z,4.90
2019-03-19T08:40:16.863Z,5.20
2019-03-19T08:42:47.110Z,5.30
2019-03-19T08:45:17.364Z,5.30
2019-03-19T08:47:47.075Z,5.30
2019-03-19T08:50:17.276Z,5.40
2019-03-19T08:52:47.708Z,5.60
2019-03-19T08:55:17.802Z,5.70
2019-03-19T08:57:47.537Z,5.80
2019-03-19T09:00:18.447Z,5.80
2019-03-19T09:02:48.299Z,5.80
2019-03-19T09:05:18.407Z,5.70
2019-03-19T09:07:48.267Z,5.90
2019-03-19T09:10:18.038Z,6.10
2019-03-19T09:12:48.667Z,6.20
2019-03-19T09:15:18.780Z,6.00
2019-03-19T09:17:48.986Z,5.80
2019-03-19T09:20:18.859Z,5.80
2019-03-19T09:22:48.666Z,5.80
2019-03-19T09:25:18.686Z,5.80
2019-03-19T09:27:48.455Z,6.00
2019-03-19T09:30:18.425Z,6.00
2019-03-19T09:32:48.364Z,6.10
2019-03-19T09:35:18.126Z,6.40
2019-03-19T09:37:57.928Z,6.60
2019-03-19T09:40:19.922Z,7.00
2019-03-19T09:42:49.737Z,7.50
2019-03-19T09:45:20.145Z,8.50
2019-03-19T09:47:50.223Z,9.20
2019-03-19T09:50:20.075Z,8.90
2019-03-19T09:52:50.268Z,9.00
2019-03-19T09:55:20.360Z,9.30
2019-03-19T09:57:50.229Z,9.50
2019-03-19T10:00:20.318Z,9.60
2019-03-19T10:02:50.386Z,9.40
2019-03-19T10:05:20.475Z,9.40
2019-03-19T10:07:50.238Z,9.20
2019-03-19T10:10:20.222Z,8.70
2019-03-19T10:12:50.270Z,8.30
2019-03-19T10:15:20.203Z,8.00
2019-03-19T10:17:49.921Z,8.00
2019-03-19T10:20:19.777Z,7.90
2019-03-19T10:22:49.842Z,7.80
2019-03-19T10:25:19.654Z,8.20
2019-03-19T10:27:49.690Z,8.70
2019-03-19T10:30:19.642Z,9.40
2019-03-19T10:32:49.750Z,9.70
2019-03-19T10:35:19.927Z,9.80
2019-03-19T10:37:50.198Z,10.20
2019-03-19T10:40:20.119Z,10.30
2019-03-19T10:42:49.948Z,10.20
2019-03-19T10:45:19.841Z,10.00
2019-03-19T10:47:49.669Z,9.90
2019-03-19T10:50:20.091Z,9.90
2019-03-19T10:52:50.186Z,9.70
2019-03-19T10:55:20.126Z,10.10
2019-03-19T10:57:50.150Z,10.20
2019-03-19T11:00:20.967Z,10.00
2019-03-19T11:02:50.825Z,10.00
2019-03-19T11:05:21.793Z,9.70
2019-03-19T11:07:51.959Z,9.80
2019-03-19T11:10:22.395Z,10.00
2019-03-19T11:12:52.497Z,9.80
2019-03-19T11:15:22.640Z,9.50
2019-03-19T11:17:52.420Z,9.50
2019-03-19T11:20:23.102Z,9.70
2019-03-19T11:22:52.944Z,10.10
2019-03-19T11:25:22.859Z,10.50
2019-03-19T11:27:52.715Z,11.00
2019-03-19T11:30:23.386Z,11.50
2019-03-19T11:32:53.235Z,11.80
2019-03-19T11:35:23.150Z,12.10
2019-03-19T11:37:53.268Z,12.10
2019-03-19T11:40:25.649Z,12.10
2019-03-19T11:42:54.954Z,12.00
2019-03-19T11:45:24.966Z,12.40
2019-03-19T11:47:54.863Z,12.30
2019-03-19T11:50:24.916Z,12.30
2019-03-19T11:52:54.767Z,12.50
2019-03-19T11:55:24.644Z,12.90
2019-03-19T11:57:54.594Z,12.80
2019-03-19T12:00:31.377Z,12.70
2019-03-19T12:03:12.364Z,12.50
2019-03-19T12:05:33.578Z,12.60
2019-03-19T12:08:03.627Z,12.60
2019-03-19T12:10:33.996Z,12.70
2019-03-19T12:13:05.073Z,12.90
2019-03-19T12:15:34.920Z,12.80
2019-03-19T12:18:04.825Z,12.90
2019-03-19T12:20:34.803Z,13.70
2019-03-19T12:23:04.715Z,14.00
2019-03-19T12:25:34.518Z,14.50
2019-03-19T12:28:04.761Z,14.20
2019-03-19T12:30:34.600Z,13.10
2019-03-19T12:33:04.613Z,13.00
2019-03-19T12:35:34.417Z,12.80
2019-03-19T12:38:04.374Z,12.40
2019-03-19T12:40:37.114Z,11.60
2019-03-19T12:43:06.048Z,11.40
2019-03-19T12:45:36.296Z,10.80
2019-03-19T12:48:06.404Z,11.40
2019-03-19T12:50:36.202Z,12.00
2019-03-19T12:53:06.332Z,12.60
2019-03-19T12:55:36.596Z,13.50
2019-03-19T12:58:06.563Z,13.90
2019-03-19T13:00:36.499Z,13.40
2019-03-19T13:03:06.553Z,13.10
2019-03-19T13:05:36.319Z,12.80
2019-03-19T13:08:06.358Z,12.30
2019-03-19T13:10:36.182Z,12.20
2019-03-19T13:13:06.064Z,12.10
2019-03-19T13:15:36.650Z,12.00
2019-03-19T13:18:06.548Z,11.80
2019-03-19T13:20:36.889Z,11.80
2019-03-19T13:23:06.647Z,11.90
2019-03-19T13:25:36.923Z,11.70
2019-03-19T13:28:06.781Z,11.60
2019-03-19T13:30:44.456Z,11.50
2019-03-19T13:33:07.967Z,11.20
2019-03-19T13:35:37.741Z,11.30
2019-03-19T13:38:07.606Z,11.10
2019-03-19T13:40:37.965Z,11.30
2019-03-19T13:43:07.902Z,11.80
2019-03-19T13:45:37.682Z,12.10
2019-03-19T13:48:07.433Z,12.30
2019-03-19T13:50:37.293Z,12.90
2019-03-19T13:53:07.319Z,12.90
2019-03-19T13:55:37.702Z,13.10
2019-03-19T13:58:07.835Z,13.50
2019-03-19T14:00:37.749Z,13.40
2019-03-19T14:03:07.540Z,13.70
2019-03-19T14:05:37.572Z,14.00
2019-03-19T14:16:39.002Z,15.40
2019-03-19T14:19:09.123Z,15.40
2019-03-19T14:21:39.343Z,15.50
2019-03-19T14:24:08.480Z,14.60
2019-03-19T14:26:38.552Z,15.00
2019-03-19T14:29:08.808Z,14.60
2019-03-19T14:31:40.163Z,14.40
2019-03-19T14:34:10.201Z,14.20
2019-03-19T14:36:40.101Z,13.90
2019-03-19T14:39:09.903Z,13.40
2019-03-19T14:41:40.016Z,13.10
2019-03-19T14:44:09.870Z,13.50
2019-03-19T14:46:40.012Z,13.70
2019-03-19T14:49:10.005Z,13.50
2019-03-19T14:51:39.807Z,13.60
2019-03-19T14:54:10.673Z,14.10
2019-03-19T14:56:40.602Z,14.60
2019-03-19T14:59:10.303Z,14.80
2019-03-19T15:01:40.370Z,15.10
2019-03-19T15:07:51.750Z,15.50
2019-03-19T15:10:21.811Z,14.30
2019-03-19T15:12:51.643Z,14.00
2019-03-19T15:15:21.489Z,14.10
2019-03-19T15:17:51.494Z,13.20
2019-03-19T15:20:21.799Z,12.70
2019-03-19T15:22:51.613Z,12.20
2019-03-19T15:25:21.955Z,12.10
2019-03-19T15:27:51.771Z,12.10
2019-03-19T15:30:21.737Z,12.60
2019-03-19T15:32:51.427Z,12.80
2019-03-19T15:35:21.463Z,13.10
2019-03-19T15:37:51.521Z,13.20
2019-03-19T15:40:21.374Z,12.90
2019-03-19T15:42:51.191Z,13.10
2019-03-19T15:45:20.975Z,13.20
2019-03-19T15:47:50.917Z,13.00
2019-03-19T15:50:20.950Z,13.20
2019-03-19T15:52:51.091Z,13.10
2019-03-19T15:55:21.088Z,13.50
2019-03-19T15:57:50.882Z,13.60
2019-03-19T16:00:20.971Z,13.60
2019-03-19T16:02:51.385Z,13.70
2019-03-19T16:05:21.217Z,13.50
2019-03-19T16:07:51.230Z,13.10
2019-03-19T16:10:21.056Z,13.40
2019-03-19T16:12:51.103Z,12.80
2019-03-19T16:15:21.164Z,13.10
2019-03-19T16:17:50.955Z,12.80
2019-03-19T16:20:21.193Z,12.40
2019-03-19T16:22:51.092Z,12.30
2019-03-19T16:25:21.093Z,12.30
2019-03-19T16:27:51.183Z,12.20
2019-03-19T16:30:21.363Z,12.30
2019-03-19T16:32:51.374Z,12.30
2019-03-19T16:35:21.171Z,12.10
2019-03-19T16:37:50.944Z,12.00
2019-03-19T16:40:21.135Z,11.80
2019-03-19T16:42:51.406Z,11.80
2019-03-19T16:45:21.285Z,11.40
2019-03-19T16:47:50.974Z,11.20
2019-03-19T16:50:20.947Z,11.20
2019-03-19T16:52:50.818Z,11.00
2019-03-19T16:55:20.702Z,11.00
2019-03-19T16:57:50.804Z,10.80
2019-03-19T17:00:21.020Z,10.40
2019-03-19T17:02:51.553Z,10.30
2019-03-19T17:05:23.099Z,10.00
2019-03-19T17:07:53.730Z,10.00
2019-03-19T17:10:24.499Z,9.90
2019-03-19T17:12:55.132Z,9.60
2019-03-19T17:15:27.063Z,9.60
2019-03-19T17:17:56.931Z,9.70
2019-03-19T17:20:27.340Z,9.50
2019-03-19T17:22:57.384Z,9.50
2019-03-19T17:25:27.474Z,9.30
2019-03-19T17:27:57.405Z,9.20
2019-03-19T17:30:27.209Z,9.00
2019-03-19T17:32:57.265Z,8.90
2019-03-19T17:35:27.430Z,8.80
2019-03-19T17:37:57.645Z,8.60
2019-03-19T17:40:27.490Z,8.50
2019-03-19T17:42:57.880Z,8.40
2019-03-19T17:45:27.999Z,8.20
2019-03-19T17:47:57.697Z,8.10
2019-03-19T17:50:27.514Z,7.90
2019-03-19T17:52:57.617Z,7.80
2019-03-19T17:55:27.619Z,7.70
2019-03-19T17:57:57.426Z,7.50
2019-03-19T18:00:28.501Z,7.50
2019-03-19T18:02:58.414Z,7.40
2019-03-19T18:05:28.180Z,7.20
2019-03-19T18:07:58.170Z,7.20
2019-03-19T18:10:28.039Z,7.20
2019-03-19T18:12:57.912Z,7.10
2019-03-19T18:15:27.666Z,7.00
2019-03-19T18:17:57.613Z,6.70
2019-03-19T18:20:27.443Z,6.70
2019-03-19T18:22:57.858Z,6.60
2019-03-19T18:25:28.218Z,6.50
2019-03-19T18:27:58.169Z,6.50
2019-03-19T18:30:28.292Z,6.50
2019-03-19T18:32:58.246Z,6.50
2019-03-19T18:35:28.541Z,6.50
2019-03-19T18:37:58.263Z,6.50
2019-03-19T18:40:28.452Z,6.50
2019-03-19T18:42:58.639Z,6.50
2019-03-19T18:45:28.395Z,6.50
2019-03-19T18:47:58.090Z,6.50
2019-03-19T18:50:28.579Z,6.40
2019-03-19T18:52:58.682Z,6.20
2019-03-19T18:55:28.543Z,6.10
2019-03-19T18:57:58.428Z,6.00
2019-03-19T19:00:28.558Z,6.00
2019-03-19T19:02:58.430Z,5.90
2019-03-19T19:05:28.138Z,5.90
2019-03-19T19:07:58.770Z,5.90
2019-03-19T19:10:28.549Z,5.80
2019-03-19T19:12:58.257Z,5.80
2019-03-19T19:15:28.420Z,5.70
2019-03-19T19:17:58.131Z,5.60
2019-03-19T19:20:28.109Z,5.60
2019-03-19T19:22:57.891Z,5.50
2019-03-19T19:25:27.923Z,5.50
2019-03-19T19:27:58.087Z,5.40
2019-03-19T19:30:28.138Z,5.40
2019-03-19T19:33:02.177Z,5.40
2019-03-19T19:35:29.632Z,5.50
2019-03-19T19:37:59.340Z,5.40
2019-03-19T19:40:29.178Z,5.30
2019-03-19T19:42:59.663Z,5.10
2019-03-19T19:45:30.020Z,5.00
2019-03-19T19:47:59.889Z,4.90
2019-03-19T19:50:29.920Z,4.80
2019-03-19T19:53:00.295Z,4.80
2019-03-19T19:55:30.031Z,4.70
2019-03-19T19:57:59.879Z,4.60
2019-03-19T20:00:29.633Z,4.60
2019-03-19T20:02:59.722Z,4.50
2019-03-19T20:05:29.795Z,4.50
2019-03-19T20:07:59.859Z,4.50
2019-03-19T20:10:29.982Z,4.60
2019-03-19T20:13:00.045Z,4.50
2019-03-19T20:15:30.066Z,4.50
2019-03-19T20:17:59.855Z,4.40
2019-03-19T20:20:29.727Z,4.30
2019-03-19T20:22:59.529Z,4.20
2019-03-19T20:25:29.929Z,4.20
2019-03-19T20:28:00.129Z,4.20
2019-03-19T20:30:30.507Z,4.20
2019-03-19T20:33:02.300Z,4.10
2019-03-19T20:35:32.125Z,4.10
2019-03-19T20:38:02.247Z,4.00
2019-03-19T20:40:32.249Z,4.00
2019-03-19T20:43:02.312Z,4.00
2019-03-19T20:45:32.473Z,4.00
2019-03-19T20:48:02.526Z,4.00
2019-03-19T20:50:32.455Z,4.00
2019-03-19T20:53:02.848Z,4.00
2019-03-19T20:55:32.938Z,3.80
2019-03-19T20:58:03.613Z,3.80
2019-03-19T21:00:33.685Z,3.80
2019-03-19T21:03:03.799Z,3.70
2019-03-19T21:05:33.927Z,3.60
2019-03-19T21:08:04.055Z,3.60
2019-03-19T21:10:34.145Z,3.50
2019-03-19T21:13:03.975Z,3.60
2019-03-19T21:15:33.869Z,3.70
2019-03-19T21:18:03.961Z,3.60
2019-03-19T21:20:33.790Z,3.60
2019-03-19T21:23:04.061Z,3.60
2019-03-19T21:25:34.017Z,3.40
2019-03-19T21:28:13.689Z,3.50
2019-03-19T21:30:35.927Z,3.70
2019-03-19T21:33:06.275Z,3.60
2019-03-19T21:35:36.338Z,3.50
2019-03-19T21:38:06.406Z,3.40
2019-03-19T21:40:36.589Z,3.40
2019-03-19T21:43:06.398Z,3.50
2019-03-19T21:45:36.242Z,3.40
2019-03-19T21:48:06.304Z,3.30
2019-03-19T21:50:36.054Z,3.30
2019-03-19T21:53:06.256Z,3.20
2019-03-19T21:55:36.583Z,3.20
2019-03-19T21:58:06.477Z,3.10
2019-03-19T22:00:36.617Z,3.10
2019-03-19T22:03:06.426Z,2.90
2019-03-19T22:05:36.494Z,3.10
2019-03-19T22:08:06.715Z,3.00
2019-03-19T22:10:36.827Z,2.90
2019-03-19T22:13:06.885Z,2.90
2019-03-19T22:15:36.749Z,3.00
2019-03-19T22:18:06.694Z,2.90
2019-03-19T22:20:36.764Z,2.90
2019-03-19T22:23:06.682Z,3.00
2019-03-19T22:25:36.538Z,3.10
2019-03-19T22:28:06.573Z,3.00
2019-03-19T22:30:36.352Z,3.00
2019-03-19T22:33:06.487Z,3.10
2019-03-19T22:35:36.277Z,3.10
2019-03-19T22:38:06.146Z,3.10
2019-03-19T22:40:35.938Z,2.90
2019-03-19T22:43:06.111Z,2.90
2019-03-19T22:45:41.913Z,2.80
2019-03-19T22:48:11.715Z,2.70
2019-03-19T22:50:41.499Z,2.70
2019-03-19T22:53:11.452Z,2.60
2019-03-19T22:55:41.259Z,2.60
2019-03-19T22:58:11.031Z,2.60
2019-03-19T23:00:43.605Z,2.70
2019-03-19T23:03:14.447Z,2.60
2019-03-19T23:05:44.634Z,2.60
2019-03-19T23:08:14.567Z,2.50
2019-03-19T23:10:45.235Z,2.50
2019-03-19T23:13:15.890Z,2.50
2019-03-19T23:15:46.282Z,2.60
2019-03-19T23:18:16.638Z,2.60
2019-03-19T23:20:47.317Z,2.60
2019-03-19T23:23:17.190Z,2.60
2019-03-19T23:25:48.041Z,2.60
2019-03-19T23:28:21.076Z,2.50
2019-03-19T23:30:51.046Z,2.50
2019-03-19T23:33:21.742Z,2.40
2019-03-19T23:35:52.042Z,2.50
2019-03-19T23:38:21.951Z,2.50
2019-03-19T23:40:52.063Z,2.30
2019-03-19T23:43:22.049Z,2.40
2019-03-19T23:45:52.372Z,2.40
2019-03-19T23:48:22.379Z,2.40
2019-03-19T23:50:53.041Z,2.40
2019-03-19T23:53:23.343Z,2.30
2019-03-19T23:55:53.376Z,2.20
2019-03-19T23:58:23.202Z,2.20
